createdAt,value
2022-12-31T00:00:15.077Z,100.00
2022-12-31T00:02:42.086Z,100.00
2022-12-31T00:05:09.366Z,100.00
2022-12-31T00:10:09.607Z,100.00
2022-12-31T00:12:38.089Z,100.00
2022-12-31T00:15:05.516Z,100.00
2022-12-31T00:17:32.695Z,100.00
2022-12-31T00:19:59.851Z,100.00
2022-12-31T00:22:26.821Z,100.00
2022-12-31T00:24:56.592Z,100.00
2022-12-31T00:27:26.493Z,100.00
2022-12-31T00:30:00.933Z,100.00
2022-12-31T00:32:32.413Z,100.00
2022-12-31T00:35:00.334Z,100.00
2022-12-31T00:37:27.868Z,100.00
2022-12-31T00:39:54.888Z,100.00
2022-12-31T00:42:21.996Z,100.00
2022-12-31T00:44:49.130Z,100.00
2022-12-31T00:47:19.326Z,100.00
2022-12-31T00:49:46.260Z,100.00
2022-12-31T00:52:16.166Z,100.00
2022-12-31T00:54:45.329Z,100.00
2022-12-31T00:57:12.774Z,100.00
2022-12-31T00:59:39.851Z,100.00
2022-12-31T01:02:11.555Z,100.00
2022-12-31T01:04:38.899Z,100.00
2022-12-31T01:07:05.892Z,100.00
2022-12-31T01:09:33.086Z,100.00
2022-12-31T01:12:00.005Z,100.00
2022-12-31T01:14:27.420Z,100.00
2022-12-31T01:16:54.471Z,100.00
2022-12-31T01:19:24.666Z,100.00
2022-12-31T01:21:52.007Z,100.00
2022-12-31T01:24:19.912Z,100.00
2022-12-31T01:26:47.165Z,100.00
2022-12-31T01:29:14.620Z,100.00
2022-12-31T01:31:41.945Z,100.00
2022-12-31T01:34:09.478Z,100.00
2022-12-31T01:36:38.202Z,100.00
2022-12-31T01:39:07.023Z,100.00
2022-12-31T01:41:43.171Z,99.89
2022-12-31T01:44:13.248Z,100.00
2022-12-31T01:46:47.702Z,98.65
2022-12-31T01:49:14.605Z,99.07
2022-12-31T01:51:44.542Z,97.83
2022-12-31T01:54:15.413Z,98.22
2022-12-31T01:56:45.644Z,98.04
2022-12-31T01:59:16.769Z,97.99
2022-12-31T02:01:44.865Z,97.23
2022-12-31T02:04:15.086Z,96.30
2022-12-31T02:06:48.413Z,95.92
2022-12-31T02:09:16.269Z,95.67
2022-12-31T02:11:43.308Z,95.01
2022-12-31T02:14:16.257Z,96.20
2022-12-31T02:17:08.657Z,96.02
2022-12-31T02:20:03.954Z,95.84
2022-12-31T02:22:58.492Z,93.88
2022-12-31T02:26:03.332Z,95.05
2022-12-31T02:29:11.586Z,93.00
2022-12-31T02:32:04.495Z,93.25
2022-12-31T02:34:35.814Z,94.14
2022-12-31T02:37:10.366Z,94.33
2022-12-31T02:39:42.572Z,94.68
2022-12-31T02:42:11.725Z,94.76
2022-12-31T02:44:42.039Z,94.82
2022-12-31T02:47:17.740Z,93.41
2022-12-31T02:50:05.007Z,93.93
2022-12-31T02:52:52.154Z,94.90
2022-12-31T02:55:38.158Z,95.21
2022-12-31T02:59:08.087Z,95.06
2022-12-31T03:02:02.305Z,94.72
2022-12-31T03:04:33.694Z,94.70
2022-12-31T03:07:04.321Z,95.06
2022-12-31T03:09:31.497Z,94.40
2022-12-31T03:12:17.903Z,94.36
2022-12-31T03:14:45.057Z,93.29
2022-12-31T03:17:12.740Z,93.37
2022-12-31T03:19:58.094Z,93.81
2022-12-31T03:22:28.217Z,93.94
2022-12-31T03:25:24.652Z,92.86
2022-12-31T03:27:55.332Z,92.45
2022-12-31T03:30:24.371Z,92.82
2022-12-31T03:32:52.181Z,92.81
2022-12-31T03:35:20.927Z,92.04
2022-12-31T03:37:49.453Z,92.37
2022-12-31T03:40:18.213Z,92.74
2022-12-31T03:42:45.207Z,92.21
2022-12-31T03:45:12.647Z,94.23
2022-12-31T03:47:40.365Z,92.41
2022-12-31T03:50:09.405Z,91.86
2022-12-31T03:52:37.078Z,90.70
2022-12-31T03:55:05.308Z,91.96
2022-12-31T03:57:32.803Z,89.30
2022-12-31T04:00:02.652Z,89.56
2022-12-31T04:02:29.767Z,89.30
2022-12-31T04:04:56.931Z,88.51
2022-12-31T04:07:24.107Z,88.52
2022-12-31T04:09:51.046Z,88.18
2022-12-31T04:12:18.128Z,89.18
2022-12-31T04:14:45.095Z,88.70
2022-12-31T04:17:12.362Z,90.70
2022-12-31T04:19:40.294Z,90.86
2022-12-31T04:22:07.575Z,86.97
2022-12-31T04:24:34.761Z,87.42
2022-12-31T04:27:07.278Z,87.48
2022-12-31T04:29:35.387Z,88.36
2022-12-31T04:32:05.748Z,87.08
2022-12-31T04:34:33.608Z,88.12
2022-12-31T04:37:00.963Z,88.53
2022-12-31T04:39:27.968Z,88.61
2022-12-31T04:41:55.374Z,87.67
2022-12-31T04:44:22.399Z,89.12
2022-12-31T04:46:49.724Z,90.42
2022-12-31T04:49:16.734Z,90.53
2022-12-31T04:51:43.602Z,92.62
2022-12-31T04:54:10.888Z,91.22
2022-12-31T04:56:38.006Z,88.50
2022-12-31T04:59:06.012Z,88.20
2022-12-31T05:01:33.743Z,88.13
2022-12-31T05:04:00.807Z,87.94
2022-12-31T05:06:27.938Z,87.53
2022-12-31T05:08:54.991Z,87.42
2022-12-31T05:11:22.013Z,87.60
2022-12-31T05:13:49.008Z,88.20
2022-12-31T05:16:15.982Z,86.81
2022-12-31T05:18:43.010Z,87.11
2022-12-31T05:21:15.782Z,88.54
2022-12-31T05:23:42.772Z,87.24
2022-12-31T05:26:09.768Z,86.79
2022-12-31T05:28:39.088Z,87.84
2022-12-31T05:31:05.998Z,87.31
2022-12-31T05:33:35.248Z,86.94
2022-12-31T05:36:02.239Z,87.96
2022-12-31T05:38:29.214Z,86.00
2022-12-31T05:41:04.170Z,86.32
2022-12-31T05:43:31.972Z,87.36
2022-12-31T05:46:03.312Z,85.15
2022-12-31T05:48:31.012Z,86.54
2022-12-31T05:50:58.053Z,85.09
2022-12-31T05:53:25.220Z,85.92
2022-12-31T05:55:52.141Z,86.19
2022-12-31T05:58:19.338Z,85.73
2022-12-31T06:00:46.418Z,86.68
2022-12-31T06:03:13.731Z,86.84
2022-12-31T06:05:44.774Z,86.78
2022-12-31T06:08:12.407Z,87.24
2022-12-31T06:10:40.686Z,86.93
2022-12-31T06:13:08.240Z,86.04
2022-12-31T06:15:39.942Z,86.21
2022-12-31T06:18:07.651Z,86.28
2022-12-31T06:20:37.428Z,86.45
2022-12-31T06:23:04.927Z,86.52
2022-12-31T06:25:34.369Z,86.70
2022-12-31T06:28:01.353Z,85.49
2022-12-31T06:30:28.349Z,86.03
2022-12-31T06:32:55.857Z,86.71
2022-12-31T06:35:23.388Z,86.79
2022-12-31T06:37:52.535Z,85.69
2022-12-31T06:40:19.450Z,86.07
2022-12-31T06:42:51.301Z,86.04
2022-12-31T06:45:21.532Z,85.93
2022-12-31T06:47:48.568Z,85.57
2022-12-31T06:50:17.961Z,86.81
2022-12-31T06:52:44.862Z,86.96
2022-12-31T06:55:12.456Z,87.23
2022-12-31T06:57:39.528Z,86.52
2022-12-31T07:00:07.295Z,86.82
2022-12-31T07:02:43.536Z,87.04
2022-12-31T07:05:32.060Z,87.20
2022-12-31T07:08:20.729Z,87.02
2022-12-31T07:11:01.689Z,86.52
2022-12-31T07:13:46.685Z,87.09
2022-12-31T07:16:26.010Z,87.17
2022-12-31T07:19:24.392Z,86.60
2022-12-31T07:21:55.176Z,85.85
2022-12-31T07:24:22.608Z,87.18
2022-12-31T07:27:04.729Z,86.84
2022-12-31T07:29:56.472Z,87.92
2022-12-31T07:32:56.341Z,87.18
2022-12-31T07:35:34.808Z,87.89
2022-12-31T07:38:12.611Z,87.56
2022-12-31T07:41:10.364Z,86.91
2022-12-31T07:44:15.450Z,87.41
2022-12-31T07:46:56.850Z,87.81
2022-12-31T07:49:26.144Z,86.83
2022-12-31T07:51:55.201Z,87.04
2022-12-31T07:54:22.369Z,86.69
2022-12-31T07:56:50.648Z,87.60
2022-12-31T07:59:42.584Z,86.68
2022-12-31T08:02:42.903Z,86.32
2022-12-31T08:05:26.130Z,87.08
2022-12-31T08:08:06.551Z,85.94
2022-12-31T08:10:41.768Z,84.73
2022-12-31T08:13:11.647Z,84.84
2022-12-31T08:15:40.179Z,84.77
2022-12-31T08:18:08.416Z,84.94
2022-12-31T08:20:48.379Z,84.64
2022-12-31T08:23:37.283Z,83.23
2022-12-31T08:26:11.936Z,83.70
2022-12-31T08:29:02.335Z,82.86
2022-12-31T08:32:13.213Z,82.70
2022-12-31T08:35:07.644Z,83.24
2022-12-31T08:37:42.168Z,84.55
2022-12-31T08:40:42.789Z,84.93
2022-12-31T08:43:18.866Z,86.74
2022-12-31T08:45:50.168Z,84.14
2022-12-31T08:48:25.923Z,84.09
2022-12-31T08:50:54.087Z,85.19
2022-12-31T08:53:21.901Z,85.71
2022-12-31T08:55:55.696Z,85.22
2022-12-31T08:58:38.801Z,85.11
2022-12-31T09:01:08.735Z,83.08
2022-12-31T09:03:59.813Z,83.99
2022-12-31T09:06:38.256Z,83.28
2022-12-31T09:09:17.329Z,83.21
2022-12-31T09:11:55.107Z,81.46
2022-12-31T09:14:40.203Z,82.60
2022-12-31T09:17:31.842Z,83.85
2022-12-31T09:19:59.127Z,82.36
2022-12-31T09:22:26.426Z,82.71
2022-12-31T09:24:53.601Z,81.65
2022-12-31T09:27:41.338Z,82.59
2022-12-31T09:30:12.974Z,80.92
2022-12-31T09:33:01.194Z,81.92
2022-12-31T09:35:36.008Z,81.82
2022-12-31T09:38:11.693Z,81.25
2022-12-31T09:40:42.052Z,83.27
2022-12-31T09:43:20.853Z,83.47
2022-12-31T09:46:09.034Z,82.39
2022-12-31T09:48:35.929Z,82.01
2022-12-31T09:51:25.581Z,80.85
2022-12-31T09:53:55.813Z,81.85
2022-12-31T09:56:37.372Z,79.54
2022-12-31T09:59:16.927Z,81.98
2022-12-31T10:02:20.738Z,82.85
2022-12-31T10:05:01.167Z,78.03
2022-12-31T10:07:55.863Z,79.21
2022-12-31T10:10:47.415Z,78.36
2022-12-31T10:13:33.345Z,77.24
2022-12-31T10:16:33.918Z,76.46
2022-12-31T10:19:35.933Z,74.16
2022-12-31T10:22:14.834Z,75.45
2022-12-31T10:24:49.043Z,74.15
2022-12-31T10:27:33.620Z,76.84
2022-12-31T10:30:18.059Z,72.71
2022-12-31T10:33:26.535Z,74.70
2022-12-31T10:36:14.584Z,73.26
2022-12-31T10:39:24.278Z,72.69
2022-12-31T10:42:28.969Z,73.87
2022-12-31T10:45:02.114Z,70.41
2022-12-31T10:48:07.425Z,72.50
2022-12-31T10:51:01.334Z,70.56
2022-12-31T10:53:47.734Z,71.76
2022-12-31T10:56:32.697Z,72.61
2022-12-31T10:59:41.134Z,69.67
2022-12-31T11:02:46.199Z,70.20
2022-12-31T11:05:38.793Z,69.36
2022-12-31T11:08:06.065Z,68.91
2022-12-31T11:11:04.335Z,71.93
2022-12-31T11:13:39.542Z,73.99
2022-12-31T11:16:18.823Z,67.80
2022-12-31T11:19:02.219Z,70.61
2022-12-31T11:21:59.845Z,70.85
2022-12-31T11:24:47.684Z,69.83
2022-12-31T11:27:41.777Z,67.08
2022-12-31T11:30:51.868Z,68.88
2022-12-31T11:33:50.719Z,70.59
2022-12-31T11:36:53.094Z,68.40
2022-12-31T11:39:31.493Z,69.06
2022-12-31T11:42:22.069Z,67.75
2022-12-31T11:45:22.607Z,68.15
2022-12-31T11:51:34.182Z,65.95
2022-12-31T11:54:37.373Z,65.55
2022-12-31T11:57:32.545Z,66.54
2022-12-31T12:00:02.529Z,66.12
2022-12-31T12:02:46.447Z,65.23
2022-12-31T12:05:17.181Z,67.60
2022-12-31T12:07:44.571Z,64.74
2022-12-31T12:10:35.671Z,64.37
2022-12-31T12:13:24.471Z,65.19
2022-12-31T12:16:04.021Z,66.09
2022-12-31T12:18:52.600Z,66.78
2022-12-31T12:21:23.380Z,64.47
2022-12-31T12:24:30.412Z,66.71
2022-12-31T12:27:00.577Z,61.81
2022-12-31T12:29:38.320Z,66.03
2022-12-31T12:32:18.691Z,63.56
2022-12-31T12:35:13.507Z,62.57
2022-12-31T12:37:42.489Z,64.65
2022-12-31T12:40:33.739Z,63.44
2022-12-31T12:43:13.981Z,62.68
2022-12-31T12:45:52.399Z,62.09
2022-12-31T12:49:22.216Z,61.88
2022-12-31T12:51:26.208Z,64.53
2022-12-31T12:54:22.213Z,65.00
2022-12-31T13:05:02.982Z,62.99
2022-12-31T13:08:08.554Z,63.22
2022-12-31T13:11:18.735Z,67.05
2022-12-31T13:13:55.287Z,64.12
2022-12-31T13:16:38.954Z,67.71
2022-12-31T13:19:17.856Z,65.75
2022-12-31T13:21:53.832Z,67.92
2022-12-31T13:24:48.254Z,63.97
2022-12-31T13:27:44.689Z,68.21
2022-12-31T13:30:19.742Z,65.35
2022-12-31T13:33:16.649Z,68.94
2022-12-31T13:35:51.644Z,65.95
2022-12-31T13:38:27.321Z,69.41
2022-12-31T13:41:05.093Z,66.17
2022-12-31T13:43:39.908Z,66.47
2022-12-31T13:46:41.947Z,68.23
2022-12-31T13:49:25.291Z,66.53
2022-12-31T13:52:01.017Z,65.98
2022-12-31T13:54:39.138Z,66.49
2022-12-31T13:57:37.854Z,67.19
2022-12-31T14:00:22.532Z,66.81
2022-12-31T14:03:20.502Z,68.27
2022-12-31T14:05:56.815Z,67.52
2022-12-31T14:08:26.232Z,67.03
2022-12-31T14:10:53.457Z,67.81
2022-12-31T14:13:23.295Z,67.95
2022-12-31T14:16:08.940Z,67.52
2022-12-31T14:18:58.894Z,67.35
2022-12-31T14:22:19.500Z,68.99
2022-12-31T14:24:52.067Z,67.27
2022-12-31T14:27:35.389Z,68.11
2022-12-31T14:30:28.016Z,67.19
2022-12-31T14:33:11.504Z,66.78
2022-12-31T14:36:10.729Z,69.54
2022-12-31T14:38:55.176Z,67.30
2022-12-31T14:41:33.545Z,68.95
2022-12-31T14:44:38.200Z,68.47
2022-12-31T14:47:22.056Z,68.42
2022-12-31T14:50:11.503Z,68.46
2022-12-31T14:52:52.808Z,67.83
2022-12-31T14:55:31.624Z,68.42
2022-12-31T15:00:58.012Z,70.35
2022-12-31T15:03:30.024Z,69.50
2022-12-31T15:06:23.117Z,70.78
2022-12-31T15:08:55.995Z,68.95
2022-12-31T15:11:40.468Z,70.97
2022-12-31T15:14:39.131Z,69.81
2022-12-31T15:17:39.309Z,69.55
2022-12-31T15:20:44.892Z,69.79
2022-12-31T15:23:28.579Z,70.39
2022-12-31T15:26:08.898Z,69.53
2022-12-31T15:28:38.548Z,70.02
2022-12-31T15:31:10.769Z,70.00
2022-12-31T15:33:56.125Z,71.38
2022-12-31T15:36:31.948Z,69.91
2022-12-31T15:39:15.699Z,71.12
2022-12-31T15:44:42.809Z,70.70
2022-12-31T15:47:32.417Z,69.77
2022-12-31T15:50:09.226Z,70.24
2022-12-31T15:52:43.299Z,72.24
2022-12-31T15:55:22.498Z,71.40
2022-12-31T15:57:51.103Z,71.54
2022-12-31T16:00:23.536Z,71.27
2022-12-31T16:02:55.023Z,71.39
2022-12-31T16:05:27.504Z,71.22
2022-12-31T16:07:59.266Z,71.22
2022-12-31T16:10:32.018Z,71.09
2022-12-31T16:13:00.161Z,72.41
2022-12-31T16:15:33.351Z,71.80
2022-12-31T16:18:22.533Z,73.16
2022-12-31T16:20:52.115Z,72.70
2022-12-31T16:23:24.178Z,72.45
2022-12-31T16:26:02.235Z,72.66
2022-12-31T16:28:33.403Z,72.14
2022-12-31T16:31:06.827Z,71.98
2022-12-31T16:33:34.562Z,71.62
2022-12-31T16:36:02.263Z,72.52
2022-12-31T16:38:36.968Z,71.56
2022-12-31T16:41:04.088Z,72.43
2022-12-31T16:43:40.141Z,71.22
2022-12-31T16:46:26.495Z,72.17
2022-12-31T16:48:56.410Z,72.16
2022-12-31T16:51:29.214Z,71.42
2022-12-31T16:54:02.063Z,69.62
2022-12-31T16:56:39.407Z,69.15
2022-12-31T16:59:19.052Z,69.15
2022-12-31T17:01:47.114Z,67.81
2022-12-31T17:04:18.675Z,68.35
2022-12-31T17:06:45.804Z,68.21
2022-12-31T17:09:20.907Z,69.79
2022-12-31T17:12:18.563Z,71.94
2022-12-31T17:14:51.015Z,72.28
2022-12-31T17:17:30.352Z,71.11
2022-12-31T17:20:00.896Z,71.49
2022-12-31T17:22:40.090Z,71.97
2022-12-31T17:25:28.584Z,71.74
2022-12-31T17:28:05.722Z,71.80
2022-12-31T17:30:32.970Z,72.42
2022-12-31T17:33:12.011Z,71.40
2022-12-31T17:35:42.428Z,71.32
2022-12-31T17:38:18.203Z,71.61
2022-12-31T17:40:51.708Z,71.79
2022-12-31T17:43:23.760Z,70.81
2022-12-31T17:45:52.975Z,71.46
2022-12-31T17:48:23.133Z,69.38
2022-12-31T17:50:57.565Z,69.66
2022-12-31T17:53:24.975Z,68.36
2022-12-31T17:55:55.123Z,69.38
2022-12-31T17:58:30.033Z,67.80
2022-12-31T18:00:58.470Z,68.08
2022-12-31T18:03:25.781Z,70.46
2022-12-31T18:05:52.658Z,68.46
2022-12-31T18:08:19.586Z,66.61
2022-12-31T18:10:46.734Z,67.11
2022-12-31T18:13:20.645Z,68.19
2022-12-31T18:15:47.613Z,66.15
2022-12-31T18:18:25.835Z,65.28
2022-12-31T18:20:58.825Z,66.30
2022-12-31T18:23:27.881Z,65.71
2022-12-31T18:25:55.095Z,65.82
2022-12-31T18:28:21.980Z,68.00
2022-12-31T18:30:50.049Z,66.53
2022-12-31T18:33:22.331Z,67.62
2022-12-31T18:36:08.198Z,66.06
2022-12-31T18:38:35.861Z,65.58
2022-12-31T18:41:02.768Z,64.73
2022-12-31T18:43:29.643Z,65.92
2022-12-31T18:45:56.570Z,64.90
2022-12-31T18:48:23.852Z,66.25
2022-12-31T18:50:50.931Z,66.74
2022-12-31T18:53:23.429Z,66.08
2022-12-31T18:55:56.248Z,65.30
2022-12-31T18:58:23.568Z,66.66
2022-12-31T19:00:51.883Z,66.00
2022-12-31T19:03:22.310Z,66.54
2022-12-31T19:05:51.187Z,65.18
2022-12-31T19:08:19.453Z,67.60
2022-12-31T19:10:48.000Z,65.29
2022-12-31T19:13:17.090Z,66.15
2022-12-31T19:15:46.975Z,68.02
2022-12-31T19:18:13.773Z,67.55
2022-12-31T19:20:41.308Z,66.43
2022-12-31T19:23:18.111Z,67.14
2022-12-31T19:25:46.892Z,66.76
2022-12-31T19:28:25.849Z,67.16
2022-12-31T19:30:53.461Z,66.29
2022-12-31T19:33:20.563Z,66.85
2022-12-31T19:35:48.172Z,70.16
2022-12-31T19:38:26.244Z,70.68
2022-12-31T19:40:53.857Z,70.30
2022-12-31T19:43:22.665Z,70.87
2022-12-31T19:45:50.833Z,70.64
2022-12-31T19:48:32.704Z,70.09
2022-12-31T19:51:00.108Z,72.50
2022-12-31T19:53:28.277Z,74.93
2022-12-31T19:55:55.137Z,72.92
2022-12-31T19:58:25.743Z,71.29
2022-12-31T20:00:58.419Z,74.08
2022-12-31T20:03:29.320Z,73.38
2022-12-31T20:06:09.459Z,73.24
2022-12-31T20:08:38.528Z,74.83
2022-12-31T20:11:15.791Z,76.27
2022-12-31T20:13:42.571Z,72.93
2022-12-31T20:16:11.825Z,76.71
2022-12-31T20:18:39.789Z,76.08
2022-12-31T20:21:18.895Z,75.90
2022-12-31T20:23:46.291Z,75.65
2022-12-31T20:26:13.341Z,78.23
2022-12-31T20:28:40.541Z,78.83
2022-12-31T20:31:16.332Z,76.92
2022-12-31T20:33:43.942Z,76.43
2022-12-31T20:36:13.895Z,78.50
2022-12-31T20:38:40.879Z,79.57
2022-12-31T20:41:10.933Z,78.67
2022-12-31T20:43:38.358Z,79.21
2022-12-31T20:46:20.138Z,79.67
2022-12-31T20:48:48.754Z,78.49
2022-12-31T20:51:17.164Z,77.39
2022-12-31T20:53:52.633Z,78.18
2022-12-31T20:56:19.527Z,78.92
2022-12-31T20:58:46.468Z,79.72
2022-12-31T21:01:14.888Z,79.75
2022-12-31T21:06:31.361Z,80.17
2022-12-31T21:09:00.445Z,79.50
2022-12-31T21:11:46.773Z,81.36
2022-12-31T21:14:13.556Z,81.73
2022-12-31T21:16:40.759Z,79.32
2022-12-31T21:19:07.683Z,79.16
2022-12-31T21:21:35.111Z,78.00
2022-12-31T21:24:02.039Z,79.66
2022-12-31T21:26:30.811Z,77.89
2022-12-31T21:28:57.963Z,78.36
2022-12-31T21:31:24.788Z,77.83
2022-12-31T21:33:51.675Z,77.25
2022-12-31T21:36:18.732Z,77.63
2022-12-31T21:38:45.525Z,77.21
2022-12-31T21:41:34.799Z,78.05
2022-12-31T21:44:02.270Z,77.24
2022-12-31T21:46:29.427Z,77.19
2022-12-31T21:49:00.582Z,77.61
2022-12-31T21:51:28.001Z,77.82
2022-12-31T21:53:54.893Z,77.41
2022-12-31T21:56:22.757Z,78.44
2022-12-31T21:59:17.258Z,79.22
2022-12-31T22:02:02.817Z,79.69
2022-12-31T22:07:16.667Z,80.05
2022-12-31T22:09:43.478Z,79.40
2022-12-31T22:12:10.291Z,79.83
2022-12-31T22:14:37.047Z,79.62
2022-12-31T22:17:04.040Z,79.24
2022-12-31T22:19:31.075Z,79.24
2022-12-31T22:21:57.878Z,79.66
2022-12-31T22:24:25.121Z,80.13
2022-12-31T22:26:54.356Z,79.84
2022-12-31T22:29:21.750Z,80.29
2022-12-31T22:31:48.651Z,80.81
2022-12-31T22:34:15.649Z,80.41
2022-12-31T22:36:42.397Z,81.01
2022-12-31T22:39:14.257Z,80.66
2022-12-31T22:42:01.073Z,80.85
2022-12-31T22:44:27.836Z,81.14
2022-12-31T22:46:56.362Z,81.37
2022-12-31T22:49:23.249Z,81.30
2022-12-31T22:51:55.825Z,81.43
2022-12-31T22:54:25.892Z,81.07
2022-12-31T22:56:52.744Z,81.01
2022-12-31T22:59:19.689Z,80.76
2022-12-31T23:01:46.654Z,80.91
2022-12-31T23:04:13.555Z,81.54
2022-12-31T23:06:46.498Z,81.56
2022-12-31T23:09:34.171Z,82.56
2022-12-31T23:12:01.916Z,82.63
2022-12-31T23:14:47.081Z,82.04
2022-12-31T23:17:37.764Z,82.97
2022-12-31T23:20:25.234Z,82.19
2022-12-31T23:23:10.590Z,82.44
2022-12-31T23:25:51.449Z,81.81
2022-12-31T23:28:24.181Z,81.19
2022-12-31T23:30:51.676Z,81.90
2022-12-31T23:33:23.608Z,82.00
2022-12-31T23:35:51.345Z,81.31
2022-12-31T23:38:18.907Z,81.23
2022-12-31T23:40:46.067Z,81.71
2022-12-31T23:43:20.597Z,81.67
2022-12-31T23:45:51.274Z,81.83
2022-12-31T23:48:18.184Z,82.44
2022-12-31T23:50:50.853Z,81.37
2022-12-31T23:53:19.936Z,82.34
2022-12-31T23:55:46.923Z,81.75
2022-12-31T23:58:13.712Z,82.12
